X  Close Metar Aviation Weather Data     EGLF Farnborough
Temperature
3°C Temperature
0°C Dewpoint
81% Humidity



Wind
9 MPH
14 KM/H
4 M/S
8 KTS



240°
WSW
Current Conditions

Clear Clear
Pressure 1006.92 (hPa) - 29.73 (inHg)
Visibility 6.2 (mile) - 10 (km)
Airport
Airport-code EGLF

Location: Farnborough
Distance: 5 (mi)

Metar:
EGLF 290620Z AUTO 24008KT 9999 NCD 03/00 Q1007

Time: 29-01-2020 06:20 GMT